createdAt,value
2018-08-31T00:01:29.789Z,101791.55
2018-08-31T00:04:40.913Z,101784.25
2018-08-31T00:07:28.185Z,101790.50
2018-08-31T00:10:13.278Z,101792.72
2018-08-31T00:12:42.047Z,101795.89
2018-08-31T00:15:10.240Z,101793.00
2018-08-31T00:17:39.886Z,101791.38
2018-08-31T00:20:08.838Z,101787.70
2018-08-31T00:22:37.015Z,101789.01
2018-08-31T00:25:16.669Z,101782.55
2018-08-31T00:27:56.002Z,101776.92
2018-08-31T00:30:35.399Z,101779.17
2018-08-31T00:33:14.727Z,101779.27
2018-08-31T00:37:54.122Z,101781.12
2018-08-31T00:40:40.003Z,101783.53
2018-08-31T00:43:18.055Z,101781.46
2018-08-31T00:45:46.138Z,101785.39
2018-08-31T00:48:14.207Z,101784.14
2018-08-31T00:50:42.276Z,101774.61
2018-08-31T00:53:10.342Z,101779.94
2018-08-31T00:55:38.443Z,101775.92
2018-08-31T00:58:06.684Z,101784.69
2018-08-31T01:00:34.774Z,101775.70
2018-08-31T01:03:02.874Z,101777.88
2018-08-31T01:05:30.984Z,101784.33
2018-08-31T01:07:59.046Z,101781.41
2018-08-31T01:10:27.102Z,101786.64
2018-08-31T01:12:55.435Z,101784.88
2018-08-31T01:15:23.502Z,101784.02
2018-08-31T01:17:51.598Z,101782.34
2018-08-31T01:20:19.650Z,101787.09
2018-08-31T01:22:47.719Z,101785.18
2018-08-31T01:25:15.770Z,101789.77
2018-08-31T01:27:43.895Z,101787.91
2018-08-31T01:30:12.130Z,101789.77
2018-08-31T01:32:40.196Z,101781.46
2018-08-31T01:35:08.274Z,101788.38
2018-08-31T01:37:36.350Z,101785.39
2018-08-31T01:40:04.711Z,101786.76
2018-08-31T01:42:32.827Z,101787.39
2018-08-31T01:45:01.001Z,101787.03
2018-08-31T01:47:29.075Z,101783.89
2018-08-31T01:49:57.132Z,101789.28
2018-08-31T01:52:25.208Z,101786.75
2018-08-31T01:54:53.403Z,101785.45
2018-08-31T01:57:21.466Z,101778.53
2018-08-31T01:59:49.522Z,101781.61
2018-08-31T02:02:18.320Z,101782.16
2018-08-31T02:04:46.383Z,101784.31
2018-08-31T02:07:15.415Z,101780.14
2018-08-31T02:09:44.718Z,101777.67
2018-08-31T02:12:12.929Z,101774.38
2018-08-31T02:14:41.082Z,101775.38
2018-08-31T02:17:09.319Z,101772.95
2018-08-31T02:19:37.406Z,101773.86
2018-08-31T02:22:05.594Z,101779.63
2018-08-31T02:24:33.811Z,101773.05
2018-08-31T02:27:01.893Z,101778.43
2018-08-31T02:29:29.967Z,101772.06
2018-08-31T02:31:58.257Z,101777.44
2018-08-31T02:34:26.316Z,101775.00
2018-08-31T02:36:54.418Z,101776.00
2018-08-31T02:39:22.738Z,101772.93
2018-08-31T02:41:50.747Z,101770.68
2018-08-31T02:44:18.799Z,101770.68
2018-08-31T02:46:46.891Z,101772.84
2018-08-31T02:49:14.940Z,101767.16
2018-08-31T02:51:43.320Z,101765.45
2018-08-31T02:54:11.534Z,101765.17
2018-08-31T02:56:39.587Z,101768.78
2018-08-31T02:59:07.673Z,101768.92
2018-08-31T03:01:35.727Z,101771.17
2018-08-31T03:09:16.917Z,101770.50
2018-08-31T03:11:45.042Z,101767.89
2018-08-31T03:14:13.072Z,101771.90
2018-08-31T03:16:41.158Z,101772.72
2018-08-31T03:19:09.417Z,101772.72
2018-08-31T03:21:37.499Z,101768.34
2018-08-31T03:24:05.567Z,101768.34
2018-08-31T03:26:33.666Z,101762.66
2018-08-31T03:29:01.757Z,101763.11
2018-08-31T03:31:29.861Z,101750.98
2018-08-31T03:33:58.107Z,101752.83
2018-08-31T03:36:26.165Z,101760.27
2018-08-31T03:38:54.242Z,101757.34
2018-08-31T03:41:22.426Z,101759.28
2018-08-31T03:43:50.542Z,101759.82
2018-08-31T03:46:18.599Z,101757.66
2018-08-31T03:48:46.691Z,101755.30
2018-08-31T03:51:14.745Z,101758.83
2018-08-31T03:53:42.804Z,101758.14
2018-08-31T03:56:10.906Z,101755.62
2018-08-31T03:58:38.958Z,101764.28
2018-08-31T04:01:07.019Z,101755.22
2018-08-31T04:03:35.109Z,101761.38
2018-08-31T04:06:03.178Z,101765.53
2018-08-31T04:08:31.234Z,101762.28
2018-08-31T04:10:59.321Z,101759.52
2018-08-31T04:13:27.375Z,101762.13
2018-08-31T04:15:55.455Z,101767.06
2018-08-31T04:18:23.507Z,101770.75
2018-08-31T04:20:51.640Z,101773.58
2018-08-31T04:23:19.747Z,101770.81
2018-08-31T04:25:47.822Z,101775.72
2018-08-31T04:28:16.142Z,101768.78
2018-08-31T04:30:44.209Z,101765.64
2018-08-31T04:33:12.311Z,101765.64
2018-08-31T04:35:40.452Z,101767.80
2018-08-31T04:38:08.667Z,101766.58
2018-08-31T04:40:36.722Z,101770.05
2018-08-31T04:43:04.831Z,101765.81
2018-08-31T04:45:33.055Z,101766.21
2018-08-31T04:48:01.115Z,101767.97
2018-08-31T04:50:29.249Z,101775.57
2018-08-31T04:52:57.304Z,101775.74
2018-08-31T04:55:25.404Z,101777.63
2018-08-31T04:57:53.966Z,101775.87
2018-08-31T05:00:22.052Z,101783.02
2018-08-31T05:02:50.138Z,101786.17
2018-08-31T05:05:18.480Z,101782.62
2018-08-31T05:07:46.577Z,101790.00
2018-08-31T05:10:14.691Z,101784.86
2018-08-31T05:12:43.039Z,101780.41
2018-08-31T05:15:11.110Z,101789.09
2018-08-31T05:17:39.167Z,101787.31
2018-08-31T05:20:07.254Z,101787.62
2018-08-31T05:22:35.537Z,101783.63
2018-08-31T05:25:03.691Z,101785.34
2018-08-31T05:27:31.806Z,101787.78
2018-08-31T05:29:59.940Z,101792.42
2018-08-31T05:32:28.788Z,101792.70
2018-08-31T05:34:56.868Z,101792.94
2018-08-31T05:37:24.946Z,101785.87
2018-08-31T05:39:53.022Z,101796.11
2018-08-31T05:42:21.072Z,101793.36
2018-08-31T05:44:49.144Z,101795.44
2018-08-31T05:47:17.244Z,101792.73
2018-08-31T05:49:45.690Z,101796.03
2018-08-31T05:52:13.798Z,101797.66
2018-08-31T05:54:41.865Z,101802.72
2018-08-31T05:57:10.091Z,101814.71
2018-08-31T05:59:38.183Z,101812.87
2018-08-31T06:02:06.253Z,101805.88
2018-08-31T06:04:45.990Z,101807.33
2018-08-31T06:07:14.059Z,101810.58
2018-08-31T06:09:42.139Z,101818.88
2018-08-31T06:12:10.271Z,101817.17
2018-08-31T06:14:38.380Z,101814.92
2018-08-31T06:17:06.455Z,101816.53
2018-08-31T06:19:34.576Z,101818.66
2018-08-31T06:22:02.832Z,101820.81
2018-08-31T06:24:30.906Z,101819.85
2018-08-31T06:26:59.008Z,101820.78
2018-08-31T06:29:33.339Z,101822.06
2018-08-31T06:32:01.439Z,101819.88
2018-08-31T06:34:29.660Z,101823.78
2018-08-31T06:36:57.763Z,101824.21
2018-08-31T06:39:25.862Z,101819.45
2018-08-31T06:41:53.935Z,101818.66
2018-08-31T06:44:22.228Z,101817.77
2018-08-31T06:46:50.287Z,101826.14
2018-08-31T06:49:18.430Z,101819.34
2018-08-31T06:51:47.025Z,101818.45
2018-08-31T06:54:15.097Z,101815.48
2018-08-31T06:56:43.159Z,101812.02
2018-08-31T06:59:11.239Z,101820.78
2018-08-31T07:01:39.301Z,101814.08
2018-08-31T07:04:07.371Z,101813.08
2018-08-31T07:06:35.483Z,101815.83
2018-08-31T07:09:04.446Z,101819.80
2018-08-31T07:11:32.583Z,101820.88
2018-08-31T07:14:00.641Z,101824.54
2018-08-31T07:16:28.762Z,101830.36
2018-08-31T07:18:57.344Z,101831.48
2018-08-31T07:21:25.423Z,101838.89
2018-08-31T07:23:53.675Z,101834.38
2018-08-31T07:26:21.994Z,101835.98
2018-08-31T07:28:50.040Z,101836.87
2018-08-31T07:31:18.340Z,101837.80
2018-08-31T07:33:46.420Z,101834.45
2018-08-31T07:36:14.543Z,101836.67
2018-08-31T07:38:42.858Z,101837.48
2018-08-31T07:41:10.911Z,101841.83
2018-08-31T07:43:39.003Z,101845.35
2018-08-31T07:46:07.126Z,101845.80
2018-08-31T07:48:35.230Z,101842.26
2018-08-31T07:51:03.689Z,101844.78
2018-08-31T07:53:31.975Z,101847.91
2018-08-31T07:56:00.055Z,101841.91
2018-08-31T07:58:28.320Z,101845.60
2018-08-31T08:00:56.415Z,101848.75
2018-08-31T08:03:24.825Z,101845.49
2018-08-31T08:05:52.903Z,101855.38
2018-08-31T08:08:21.002Z,101854.64
2018-08-31T08:10:49.076Z,101852.16
2018-08-31T08:13:17.376Z,101858.81
2018-08-31T08:15:45.463Z,101866.67
2018-08-31T08:18:13.861Z,101870.14
2018-08-31T08:20:41.939Z,101867.18
2018-08-31T08:23:10.025Z,101865.30
2018-08-31T08:25:38.336Z,101864.39
2018-08-31T08:28:06.447Z,101866.83
2018-08-31T08:30:34.529Z,101868.08
2018-08-31T08:33:02.646Z,101867.32
2018-08-31T08:35:30.709Z,101870.63
2018-08-31T08:37:58.797Z,101872.70
2018-08-31T08:40:26.879Z,101874.42
2018-08-31T08:42:55.156Z,101872.86
2018-08-31T08:45:23.229Z,101872.15
2018-08-31T08:47:51.330Z,101873.63
2018-08-31T08:50:19.391Z,101877.00
2018-08-31T08:52:47.460Z,101877.13
2018-08-31T08:55:15.702Z,101880.13
2018-08-31T08:57:43.783Z,101880.77
2018-08-31T09:00:11.878Z,101879.19
2018-08-31T09:02:40.134Z,101878.35
2018-08-31T09:05:08.197Z,101878.72
2018-08-31T09:07:36.265Z,101878.34
2018-08-31T09:10:04.556Z,101880.73
2018-08-31T09:12:32.669Z,101881.33
2018-08-31T09:15:00.785Z,101880.72
2018-08-31T09:17:28.991Z,101884.80
2018-08-31T09:19:57.059Z,101879.13
2018-08-31T09:22:25.246Z,101879.95
2018-08-31T09:24:53.894Z,101881.03
2018-08-31T09:27:21.967Z,101878.47
2018-08-31T09:29:50.041Z,101879.39
2018-08-31T09:32:23.615Z,101876.95
2018-08-31T09:34:53.455Z,101874.80
2018-08-31T09:37:21.548Z,101879.38
2018-08-31T09:39:49.896Z,101876.58
2018-08-31T09:42:18.280Z,101878.52
2018-08-31T09:44:46.395Z,101872.52
2018-08-31T09:47:14.810Z,101867.02
2018-08-31T09:49:43.672Z,101867.10
2018-08-31T09:52:11.927Z,101867.13
2018-08-31T09:54:40.020Z,101861.83
2018-08-31T09:57:08.333Z,101860.21
2018-08-31T09:59:36.391Z,101858.95
2018-08-31T10:02:06.840Z,101861.54
2018-08-31T10:04:34.899Z,101857.70
2018-08-31T10:07:02.987Z,101859.25
2018-08-31T10:09:31.129Z,101861.61
2018-08-31T10:11:59.183Z,101858.19
2018-08-31T10:14:27.252Z,101863.31
2018-08-31T10:16:55.467Z,101861.95
2018-08-31T10:19:23.591Z,101868.80
2018-08-31T10:21:51.733Z,101869.01
2018-08-31T10:24:19.925Z,101866.25
2018-08-31T10:26:48.003Z,101869.53
2018-08-31T10:29:16.095Z,101874.64
2018-08-31T10:31:44.195Z,101869.25
2018-08-31T10:34:12.600Z,101868.85
2018-08-31T10:36:40.691Z,101864.03
2018-08-31T10:39:10.613Z,101861.04
2018-08-31T10:41:38.683Z,101855.19
2018-08-31T10:44:06.948Z,101859.23
2018-08-31T10:46:35.238Z,101860.24
2018-08-31T10:49:03.318Z,101856.13
2018-08-31T10:51:32.239Z,101851.30
2018-08-31T10:54:00.302Z,101853.05
2018-08-31T10:56:28.524Z,101852.44
2018-08-31T10:58:56.630Z,101852.82
2018-08-31T11:01:24.806Z,101848.94
2018-08-31T11:03:52.887Z,101846.38
2018-08-31T11:06:21.015Z,101844.34
2018-08-31T11:08:49.080Z,101842.88
2018-08-31T11:11:17.163Z,101842.22
2018-08-31T11:13:45.235Z,101849.42
2018-08-31T11:16:13.323Z,101844.06
2018-08-31T11:18:41.449Z,101841.40
2018-08-31T11:21:10.048Z,101844.70
2018-08-31T11:23:38.137Z,101847.75
2018-08-31T11:26:06.202Z,101844.87
2018-08-31T11:28:34.290Z,101850.87
2018-08-31T11:31:02.350Z,101849.45
2018-08-31T11:33:30.452Z,101849.23
2018-08-31T11:35:58.600Z,101848.19
2018-08-31T11:38:26.710Z,101849.42
2018-08-31T11:40:54.779Z,101851.72
2018-08-31T11:43:22.888Z,101850.02
2018-08-31T11:45:50.968Z,101849.66
2018-08-31T11:48:19.090Z,101850.14
2018-08-31T11:50:47.140Z,101850.51
2018-08-31T11:53:15.259Z,101843.05
2018-08-31T11:55:43.413Z,101848.69
2018-08-31T11:58:11.473Z,101847.81
2018-08-31T12:00:39.586Z,101843.36
2018-08-31T12:03:07.628Z,101847.81
2018-08-31T12:05:35.757Z,101843.23
2018-08-31T12:08:04.870Z,101852.02
2018-08-31T12:10:32.962Z,101847.31
2018-08-31T12:13:01.080Z,101846.97
2018-08-31T12:15:46.623Z,101855.25
2018-08-31T12:18:14.703Z,101850.56
2018-08-31T12:20:42.830Z,101849.95
2018-08-31T12:23:10.961Z,101844.77
2018-08-31T12:25:39.047Z,101847.78
2018-08-31T12:28:07.118Z,101844.05
2018-08-31T12:30:35.460Z,101843.81
2018-08-31T12:33:03.525Z,101844.77
2018-08-31T12:35:31.699Z,101841.78
2018-08-31T12:37:59.748Z,101835.66
2018-08-31T12:40:27.840Z,101834.68
2018-08-31T12:42:55.942Z,101837.59
2018-08-31T12:45:24.031Z,101835.11
2018-08-31T12:47:52.110Z,101837.28
2018-08-31T12:50:20.198Z,101842.41
2018-08-31T12:52:48.280Z,101837.73
2018-08-31T12:55:16.492Z,101837.52
2018-08-31T12:57:44.591Z,101835.29
2018-08-31T13:00:12.786Z,101837.23
2018-08-31T13:02:41.026Z,101828.09
2018-08-31T13:05:09.099Z,101830.71
2018-08-31T13:07:37.194Z,101828.67
2018-08-31T13:10:05.263Z,101823.08
2018-08-31T13:12:33.326Z,101823.89
2018-08-31T13:15:01.408Z,101823.53
2018-08-31T13:17:29.540Z,101820.78
2018-08-31T13:19:57.804Z,101810.31
2018-08-31T13:22:25.766Z,101810.45
2018-08-31T13:24:53.822Z,101814.97
2018-08-31T13:27:21.920Z,101807.20
2018-08-31T13:29:50.023Z,101806.89
2018-08-31T13:32:33.424Z,101804.46
2018-08-31T13:35:01.580Z,101803.34
2018-08-31T13:37:29.636Z,101806.83
2018-08-31T13:39:57.706Z,101804.72
2018-08-31T13:42:25.979Z,101800.14
2018-08-31T13:44:54.047Z,101799.02
2018-08-31T13:47:22.118Z,101800.53
2018-08-31T13:49:50.388Z,101802.31
2018-08-31T13:52:18.449Z,101800.50
2018-08-31T13:54:46.509Z,101805.23
2018-08-31T13:57:14.587Z,101802.48
2018-08-31T13:59:42.648Z,101803.50
2018-08-31T14:02:10.750Z,101805.05
2018-08-31T14:04:38.853Z,101805.69
2018-08-31T14:07:06.952Z,101811.56
2018-08-31T14:09:35.055Z,101805.33
2018-08-31T14:12:03.131Z,101811.44
2018-08-31T14:14:31.680Z,101807.23
2018-08-31T14:16:59.801Z,101808.57
2018-08-31T14:19:28.075Z,101815.86
2018-08-31T14:21:56.141Z,101812.34
2018-08-31T14:24:24.202Z,101806.01
2018-08-31T14:26:52.274Z,101803.78
2018-08-31T14:29:20.365Z,101808.07
2018-08-31T14:31:48.429Z,101809.56
2018-08-31T14:34:16.496Z,101812.81
2018-08-31T14:36:44.552Z,101812.48
2018-08-31T14:39:12.604Z,101813.13
2018-08-31T14:41:40.719Z,101808.44
2018-08-31T14:44:09.183Z,101803.83
2018-08-31T14:46:37.332Z,101800.69
2018-08-31T14:49:05.947Z,101808.52
2018-08-31T14:51:34.042Z,101813.08
2018-08-31T14:54:02.303Z,101804.14
2018-08-31T14:56:30.367Z,101805.20
2018-08-31T14:58:58.437Z,101804.56
2018-08-31T15:01:26.511Z,101801.08
2018-08-31T15:03:54.932Z,101800.27
2018-08-31T15:06:23.115Z,101798.52
2018-08-31T15:08:51.211Z,101812.77
2018-08-31T15:11:19.287Z,101809.23
2018-08-31T15:13:47.388Z,101812.03
2018-08-31T15:16:15.439Z,101810.52
2018-08-31T15:18:43.576Z,101820.95
2018-08-31T15:21:11.630Z,101822.00
2018-08-31T15:23:39.933Z,101822.09
2018-08-31T15:26:08.124Z,101816.87
2018-08-31T15:28:36.211Z,101813.97
2018-08-31T15:31:05.207Z,101818.69
2018-08-31T15:33:33.278Z,101817.28
2018-08-31T15:36:01.400Z,101825.74
2018-08-31T15:38:29.485Z,101825.91
2018-08-31T15:40:57.555Z,101823.80
2018-08-31T15:43:25.615Z,101822.50
2018-08-31T15:45:53.855Z,101826.31
2018-08-31T15:48:21.951Z,101823.06
2018-08-31T15:50:50.098Z,101817.59
2018-08-31T15:53:18.465Z,101820.63
2018-08-31T15:55:46.554Z,101826.01
2018-08-31T15:58:14.816Z,101822.81
2018-08-31T16:00:43.285Z,101824.75
2018-08-31T16:03:11.366Z,101825.73
2018-08-31T16:05:39.430Z,101833.14
2018-08-31T16:08:07.806Z,101833.04
2018-08-31T16:10:35.943Z,101832.28
2018-08-31T16:13:04.947Z,101838.42
2018-08-31T16:15:33.275Z,101840.66
2018-08-31T16:18:01.346Z,101841.52
2018-08-31T16:20:29.419Z,101837.24
2018-08-31T16:22:57.503Z,101837.01
2018-08-31T16:25:25.560Z,101841.32
2018-08-31T16:27:53.645Z,101837.52
2018-08-31T16:30:21.748Z,101839.87
2018-08-31T16:32:49.819Z,101839.78
2018-08-31T16:35:17.924Z,101844.13
2018-08-31T16:37:45.986Z,101843.45
2018-08-31T16:40:14.075Z,101849.93
2018-08-31T16:42:42.168Z,101849.55
2018-08-31T16:45:10.274Z,101853.80
2018-08-31T16:47:38.331Z,101846.97
2018-08-31T16:50:06.579Z,101849.74
2018-08-31T16:52:34.665Z,101847.25
2018-08-31T16:55:02.746Z,101853.63
2018-08-31T16:57:30.836Z,101854.34
2018-08-31T16:59:58.943Z,101854.71
2018-08-31T17:02:27.004Z,101856.77
2018-08-31T17:04:55.090Z,101858.94
2018-08-31T17:07:23.170Z,101863.97
2018-08-31T17:09:51.254Z,101858.34
2018-08-31T17:12:19.419Z,101854.37
2018-08-31T17:14:47.537Z,101861.22
2018-08-31T17:17:15.667Z,101865.20
2018-08-31T17:19:43.739Z,101867.02
2018-08-31T17:22:33.405Z,101861.48
2018-08-31T17:25:01.474Z,101864.28
2018-08-31T17:27:34.955Z,101866.94
2018-08-31T17:30:08.399Z,101872.00
2018-08-31T17:32:41.874Z,101870.17
2018-08-31T17:35:15.373Z,101871.86
2018-08-31T17:37:43.462Z,101867.74
2018-08-31T17:40:11.634Z,101870.80
2018-08-31T17:42:40.966Z,101875.11
2018-08-31T17:45:10.083Z,101878.47
2018-08-31T17:47:38.402Z,101875.93
2018-08-31T17:50:07.307Z,101878.11
2018-08-31T17:52:35.405Z,101880.26
2018-08-31T17:55:03.479Z,101881.83
2018-08-31T17:57:31.704Z,101885.30
2018-08-31T17:59:59.819Z,101891.56
2018-08-31T18:02:27.934Z,101887.72
2018-08-31T18:04:56.148Z,101893.10
2018-08-31T18:07:24.220Z,101889.61
2018-08-31T18:09:52.287Z,101890.84
2018-08-31T18:12:20.362Z,101886.37
2018-08-31T18:14:48.587Z,101889.98
2018-08-31T18:17:16.676Z,101889.39
2018-08-31T18:19:44.748Z,101889.98
2018-08-31T18:22:13.090Z,101891.06
2018-08-31T18:24:41.174Z,101897.16
2018-08-31T18:27:09.284Z,101900.40
2018-08-31T18:29:37.375Z,101895.49
2018-08-31T18:32:05.446Z,101899.67
2018-08-31T18:34:33.516Z,101900.65
2018-08-31T18:37:01.629Z,101900.52
2018-08-31T18:39:29.719Z,101903.38
2018-08-31T18:41:57.828Z,101904.22
2018-08-31T18:44:25.976Z,101903.96
2018-08-31T18:46:54.235Z,101913.33
2018-08-31T18:49:22.896Z,101911.37
2018-08-31T18:51:51.077Z,101911.16
2018-08-31T18:54:19.159Z,101911.63
2018-08-31T18:56:47.279Z,101909.20
2018-08-31T18:59:15.400Z,101909.91
2018-08-31T19:01:43.551Z,101910.38
2018-08-31T19:04:11.893Z,101911.35
2018-08-31T19:06:40.191Z,101918.08
2018-08-31T19:09:08.930Z,101924.89
2018-08-31T19:11:37.090Z,101923.55
2018-08-31T19:14:05.163Z,101925.30
2018-08-31T19:16:33.251Z,101929.83
2018-08-31T19:19:01.324Z,101938.34
2018-08-31T19:21:29.439Z,101934.47
2018-08-31T19:23:57.705Z,101935.17
2018-08-31T19:26:25.784Z,101934.91
2018-08-31T19:28:53.867Z,101932.72
2018-08-31T19:31:22.001Z,101939.17
2018-08-31T19:33:50.090Z,101941.44
2018-08-31T19:36:18.179Z,101938.66
2018-08-31T19:38:46.419Z,101943.20
2018-08-31T19:41:14.630Z,101941.12
2018-08-31T19:43:42.630Z,101946.45
2018-08-31T19:46:10.708Z,101942.78
2018-08-31T19:48:38.830Z,101947.91
2018-08-31T19:51:06.902Z,101950.19
2018-08-31T19:53:35.063Z,101958.45
2018-08-31T19:56:03.148Z,101956.66
2018-08-31T19:58:31.223Z,101956.52
2018-08-31T20:00:59.334Z,101967.76
2018-08-31T20:03:27.452Z,101966.28
2018-08-31T20:05:55.553Z,101973.66
2018-08-31T20:08:23.648Z,101966.14
2018-08-31T20:10:51.699Z,101965.63
2018-08-31T20:13:19.898Z,101968.84
2018-08-31T20:15:47.989Z,101970.09
2018-08-31T20:18:16.097Z,101965.73
2018-08-31T20:20:44.168Z,101972.16
2018-08-31T20:23:12.263Z,101975.22
2018-08-31T20:25:40.391Z,101977.30
2018-08-31T20:28:08.478Z,101974.05
2018-08-31T20:30:36.684Z,101980.47
2018-08-31T20:33:05.189Z,101986.66
2018-08-31T20:35:33.738Z,101981.39
2018-08-31T20:38:01.828Z,101986.31
2018-08-31T20:40:29.922Z,101986.89
2018-08-31T20:42:58.002Z,101994.62
2018-08-31T20:45:26.204Z,101996.34
2018-08-31T20:47:54.459Z,101995.22
2018-08-31T20:50:22.592Z,101995.84
2018-08-31T20:52:50.850Z,101999.05
2018-08-31T20:55:19.155Z,101999.34
2018-08-31T20:57:47.226Z,101999.67
2018-08-31T21:00:15.352Z,102000.53
2018-08-31T21:02:43.584Z,102001.28
2018-08-31T21:05:11.725Z,102008.19
2018-08-31T21:07:39.800Z,102007.70
2018-08-31T21:10:07.878Z,102010.91
2018-08-31T21:12:35.972Z,102008.84
2018-08-31T21:15:04.740Z,102013.08
2018-08-31T21:17:33.021Z,102013.93
2018-08-31T21:20:01.126Z,102007.84
2018-08-31T21:22:29.194Z,102004.39
2018-08-31T21:24:57.488Z,102005.99
2018-08-31T21:27:25.635Z,102008.73
2018-08-31T21:29:53.718Z,102011.45
2018-08-31T21:32:21.937Z,102008.08
2018-08-31T21:34:50.082Z,102008.65
2018-08-31T21:37:18.160Z,102013.62
2018-08-31T21:39:46.415Z,102014.19
2018-08-31T21:42:14.566Z,102012.22
2018-08-31T21:44:42.568Z,102017.30
2018-08-31T21:47:10.745Z,102020.10
2018-08-31T21:49:38.812Z,102015.69
2018-08-31T21:52:08.331Z,102017.95
2018-08-31T21:54:36.410Z,102022.92
2018-08-31T21:57:05.558Z,102018.33
2018-08-31T21:59:33.834Z,102014.94
2018-08-31T22:02:01.919Z,102018.05
2018-08-31T22:04:29.992Z,102021.06
2018-08-31T22:06:58.092Z,102018.41
2018-08-31T22:09:26.424Z,102015.59
2018-08-31T22:11:54.536Z,102019.86
2018-08-31T22:14:22.601Z,102025.48
2018-08-31T22:16:50.668Z,102022.86
2018-08-31T22:19:18.731Z,102028.08
2018-08-31T22:21:46.957Z,102028.08
2018-08-31T22:24:15.513Z,102026.27
2018-08-31T22:26:43.638Z,102023.15
2018-08-31T22:29:12.442Z,102026.89
2018-08-31T22:31:40.549Z,102023.60
2018-08-31T22:34:08.633Z,102020.88
2018-08-31T22:36:36.716Z,102019.72
2018-08-31T22:39:07.212Z,102018.70
2018-08-31T22:41:35.296Z,102022.88
2018-08-31T22:44:03.407Z,102015.72
2018-08-31T22:46:31.519Z,102011.58
2018-08-31T22:48:59.648Z,102013.09
2018-08-31T22:51:28.111Z,102019.59
2018-08-31T22:53:56.277Z,102019.94
2018-08-31T22:56:24.382Z,102019.52
2018-08-31T22:58:52.450Z,102019.50
2018-08-31T23:01:20.519Z,102024.14
2018-08-31T23:03:48.583Z,102023.52
2018-08-31T23:06:16.807Z,102031.39
2018-08-31T23:08:44.882Z,102024.23
2018-08-31T23:11:12.960Z,102029.66
2018-08-31T23:13:42.874Z,102029.84
2018-08-31T23:16:10.953Z,102028.31
2018-08-31T23:18:39.123Z,102030.32
2018-08-31T23:21:07.910Z,102027.12
2018-08-31T23:23:41.217Z,102034.27
2018-08-31T23:26:09.369Z,102030.22
2018-08-31T23:28:37.448Z,102035.64
2018-08-31T23:31:05.691Z,102031.17
2018-08-31T23:33:33.776Z,102035.34
2018-08-31T23:36:01.862Z,102033.35
2018-08-31T23:38:30.004Z,102032.67
2018-08-31T23:40:58.010Z,102031.59
2018-08-31T23:43:26.087Z,102035.22
2018-08-31T23:45:54.170Z,102038.56
2018-08-31T23:48:22.292Z,102034.09
2018-08-31T23:50:50.405Z,102030.48
2018-08-31T23:53:18.456Z,102031.47
2018-08-31T23:55:46.533Z,102027.72
2018-08-31T23:58:14.635Z,102027.86
